sensor_id;sensor_type;location;lat;lon;timestamp;pressure;altitude;pressure_sealevel;temperature;humidity
25130;BME280;13308;50.860;13.664;2024-02-16T06:36:24;96693.63;;;10.18;100.00
25130;BME280;13308;50.860;13.664;2024-02-16T06:38:50;96698.34;;;10.18;100.00
25130;BME280;13308;50.860;13.664;2024-02-16T06:41:16;96703.19;;;10.33;100.00
25130;BME280;13308;50.860;13.664;2024-02-16T06:43:42;96701.19;;;10.37;100.00
25130;BME280;13308;50.860;13.664;2024-02-16T06:46:08;96708.72;;;10.33;100.00
25130;BME280;13308;50.860;13.664;2024-02-16T06:48:33;96711.72;;;10.42;100.00
25130;BME280;13308;50.860;13.664;2024-02-16T06:50:58;96711.66;;;10.46;100.00
25130;BME280;13308;50.860;13.664;2024-02-16T06:53:24;96704.16;;;10.46;100.00
25130;BME280;13308;50.860;13.664;2024-02-16T06:55:49;96701.31;;;10.53;100.00
25130;BME280;13308;50.860;13.664;2024-02-16T06:58:15;96702.25;;;10.43;100.00
25130;BME280;13308;50.860;13.664;2024-02-16T07:00:40;96696.75;;;10.43;100.00
25130;BME280;13308;50.860;13.664;2024-02-16T07:03:07;96686.66;;;10.33;100.00
25130;BME280;13308;50.860;13.664;2024-02-16T07:05:32;96692.50;;;10.39;100.00
25130;BME280;13308;50.860;13.664;2024-02-16T07:07:58;96700.56;;;10.49;100.00
25130;BME280;13308;50.860;13.664;2024-02-16T07:10:23;96709.00;;;10.62;100.00
25130;BME280;13308;50.860;13.664;2024-02-16T07:12:49;96699.09;;;10.64;100.00
25130;BME280;13308;50.860;13.664;2024-02-16T07:15:14;96703.94;;;10.60;100.00
25130;BME280;13308;50.860;13.664;2024-02-16T07:17:40;96703.06;;;10.63;100.00
25130;BME280;13308;50.860;13.664;2024-02-16T07:20:05;96698.16;;;10.74;100.00
25130;BME280;13308;50.860;13.664;2024-02-16T07:22:31;96707.16;;;10.78;100.00
25130;BME280;13308;50.860;13.664;2024-02-16T07:24:57;96710.59;;;10.82;100.00
25130;BME280;13308;50.860;13.664;2024-02-16T07:27:25;96698.66;;;10.89;100.00
25130;BME280;13308;50.860;13.664;2024-02-16T07:29:50;96700.00;;;11.00;100.00
25130;BME280;13308;50.860;13.664;2024-02-16T07:32:16;96712.00;;;11.13;100.00
25130;BME280;13308;50.860;13.664;2024-02-16T07:34:45;96705.59;;;11.16;100.00
25130;BME280;13308;50.860;13.664;2024-02-16T07:37:10;96699.59;;;11.21;100.00
25130;BME280;13308;50.860;13.664;2024-02-16T07:39:36;96709.78;;;11.24;100.00
25130;BME280;13308;50.860;13.664;2024-02-16T07:42:01;96702.69;;;11.43;100.00
25130;BME280;13308;50.860;13.664;2024-02-16T07:44:28;96704.38;;;11.56;100.00
25130;BME280;13308;50.860;13.664;2024-02-16T07:46:53;96702.69;;;11.62;100.00
25130;BME280;13308;50.860;13.664;2024-02-16T07:49:19;96686.00;;;11.85;100.00
25130;BME280;13308;50.860;13.664;2024-02-16T07:51:44;96698.09;;;12.07;100.00
25130;BME280;13308;50.860;13.664;2024-02-16T07:54:09;96677.03;;;12.29;98.83
25130;BME280;13308;50.860;13.664;2024-02-16T07:56:35;96699.78;;;12.53;96.43
25130;BME280;13308;50.860;13.664;2024-02-16T07:59:00;96698.97;;;12.68;95.23
25130;BME280;13308;50.860;13.664;2024-02-16T08:01:26;96695.50;;;12.80;93.51
25130;BME280;13308;50.860;13.664;2024-02-16T08:03:51;96702.91;;;12.83;92.33
25130;BME280;13308;50.860;13.664;2024-02-16T08:06:16;96691.50;;;12.81;92.36
25130;BME280;13308;50.860;13.664;2024-02-16T08:08:46;96687.75;;;12.88;92.02
25130;BME280;13308;50.860;13.664;2024-02-16T08:11:12;96687.59;;;12.95;90.84
25130;BME280;13308;50.860;13.664;2024-02-16T08:13:37;96690.44;;;12.91;90.73
25130;BME280;13308;50.860;13.664;2024-02-16T08:16:03;96702.22;;;12.95;90.40
25130;BME280;13308;50.860;13.664;2024-02-16T08:18:32;96698.22;;;12.96;90.37
25130;BME280;13308;50.860;13.664;2024-02-16T08:20:57;96696.25;;;12.97;90.62
25130;BME280;13308;50.860;13.664;2024-02-16T08:23:22;96702.81;;;13.03;90.33
25130;BME280;13308;50.860;13.664;2024-02-16T08:25:48;96700.44;;;13.17;88.74
25130;BME280;13308;50.860;13.664;2024-02-16T08:28:13;96702.19;;;13.24;88.15
25130;BME280;13308;50.860;13.664;2024-02-16T08:30:39;96701.25;;;13.30;88.35
25130;BME280;13308;50.860;13.664;2024-02-16T08:33:07;96709.28;;;13.53;86.77
25130;BME280;13308;50.860;13.664;2024-02-16T08:35:32;96708.75;;;13.71;85.29
25130;BME280;13308;50.860;13.664;2024-02-16T08:37:57;96709.44;;;14.00;83.14
25130;BME280;13308;50.860;13.664;2024-02-16T08:40:22;96704.47;;;14.07;82.41
25130;BME280;13308;50.860;13.664;2024-02-16T08:42:49;96713.16;;;14.34;79.79
25130;BME280;13308;50.860;13.664;2024-02-16T08:45:14;96705.34;;;14.54;81.26
25130;BME280;13308;50.860;13.664;2024-02-16T08:47:43;96708.72;;;14.83;78.13
25130;BME280;13308;50.860;13.664;2024-02-16T08:50:09;96702.66;;;14.63;77.68
25130;BME280;13308;50.860;13.664;2024-02-16T08:52:34;96696.91;;;14.45;78.96
25130;BME280;13308;50.860;13.664;2024-02-16T08:55:00;96690.53;;;14.23;79.24
25130;BME280;13308;50.860;13.664;2024-02-16T08:57:25;96686.81;;;13.89;81.05
25130;BME280;13308;50.860;13.664;2024-02-16T08:59:50;96702.66;;;13.76;81.12
25130;BME280;13308;50.860;13.664;2024-02-16T09:02:15;96692.91;;;13.71;82.20
25130;BME280;13308;50.860;13.664;2024-02-16T09:04:41;96690.13;;;13.71;81.48
25130;BME280;13308;50.860;13.664;2024-02-16T09:07:06;96694.22;;;13.54;81.65
25130;BME280;13308;50.860;13.664;2024-02-16T09:09:32;96700.53;;;13.55;82.19
25130;BME280;13308;50.860;13.664;2024-02-16T09:11:58;96699.06;;;13.50;80.76
25130;BME280;13308;50.860;13.664;2024-02-16T09:14:23;96695.53;;;13.62;79.37
25130;BME280;13308;50.860;13.664;2024-02-16T09:16:49;96701.41;;;13.52;78.64
25130;BME280;13308;50.860;13.664;2024-02-16T09:19:17;96705.97;;;13.58;79.19
25130;BME280;13308;50.860;13.664;2024-02-16T09:21:42;96686.81;;;13.76;77.15
25130;BME280;13308;50.860;13.664;2024-02-16T09:24:07;96692.22;;;13.67;77.39
25130;BME280;13308;50.860;13.664;2024-02-16T09:26:36;96689.91;;;13.78;77.04
25130;BME280;13308;50.860;13.664;2024-02-16T09:29:01;96695.34;;;13.69;76.87
25130;BME280;13308;50.860;13.664;2024-02-16T09:31:27;96685.59;;;13.77;76.00
25130;BME280;13308;50.860;13.664;2024-02-16T09:33:52;96681.97;;;14.05;74.72
25130;BME280;13308;50.860;13.664;2024-02-16T09:36:18;96689.91;;;14.03;73.99
25130;BME280;13308;50.860;13.664;2024-02-16T09:38:44;96688.97;;;14.22;72.60
25130;BME280;13308;50.860;13.664;2024-02-16T09:41:09;96694.44;;;14.72;71.03
25130;BME280;13308;50.860;13.664;2024-02-16T09:43:34;96710.97;;;14.76;70.66
25130;BME280;13308;50.860;13.664;2024-02-16T09:46:00;96703.97;;;14.71;69.32
25130;BME280;13308;50.860;13.664;2024-02-16T09:48:27;96723.66;;;14.52;70.42
25130;BME280;13308;50.860;13.664;2024-02-16T09:50:56;96732.19;;;14.57;70.35
25130;BME280;13308;50.860;13.664;2024-02-16T09:53:28;96748.22;;;14.53;70.58
25130;BME280;13308;50.860;13.664;2024-02-16T09:55:54;96742.56;;;14.32;71.77
25130;BME280;13308;50.860;13.664;2024-02-16T09:58:19;96748.13;;;14.32;70.43
25130;BME280;13308;50.860;13.664;2024-02-16T10:00:52;96749.53;;;14.11;71.21
25130;BME280;13308;50.860;13.664;2024-02-16T10:03:24;96754.41;;;14.32;72.20
25130;BME280;13308;50.860;13.664;2024-02-16T10:05:52;96764.03;;;14.03;72.77
25130;BME280;13308;50.860;13.664;2024-02-16T10:08:20;96775.19;;;14.28;71.68
25130;BME280;13308;50.860;13.664;2024-02-16T10:10:45;96762.75;;;14.20;73.10
25130;BME280;13308;50.860;13.664;2024-02-16T10:13:10;96773.78;;;13.95;73.03
25130;BME280;13308;50.860;13.664;2024-02-16T10:15:36;96778.72;;;13.75;74.35
25130;BME280;13308;50.860;13.664;2024-02-16T10:18:03;96770.84;;;13.73;75.13
25130;BME280;13308;50.860;13.664;2024-02-16T10:20:30;96767.81;;;13.55;73.93
25130;BME280;13308;50.860;13.664;2024-02-16T10:23:08;96763.53;;;13.38;75.77
25130;BME280;13308;50.860;13.664;2024-02-16T10:25:38;96764.28;;;13.55;76.00
25130;BME280;13308;50.860;13.664;2024-02-16T10:28:07;96762.34;;;13.39;75.49
25130;BME280;13308;50.860;13.664;2024-02-16T10:30:37;96753.19;;;13.26;78.09
25130;BME280;13308;50.860;13.664;2024-02-16T10:33:05;96753.94;;;13.55;76.94
25130;BME280;13308;50.860;13.664;2024-02-16T10:35:32;96745.56;;;13.30;78.10
25130;BME280;13308;50.860;13.664;2024-02-16T10:38:01;96751.72;;;13.50;75.35
25130;BME280;13308;50.860;13.664;2024-02-16T10:40:30;96739.44;;;13.23;77.64
25130;BME280;13308;50.860;13.664;2024-02-16T10:43:00;96735.69;;;13.29;78.22
25130;BME280;13308;50.860;13.664;2024-02-16T10:45:29;96725.22;;;13.37;76.48
25130;BME280;13308;50.860;13.664;2024-02-16T10:47:55;96723.94;;;13.66;74.44
25130;BME280;13308;50.860;13.664;2024-02-16T10:50:20;96719.72;;;13.74;73.50
25130;BME280;13308;50.860;13.664;2024-02-16T10:52:46;96717.53;;;13.69;73.68
25130;BME280;13308;50.860;13.664;2024-02-16T10:55:13;96712.41;;;13.80;72.99
25130;BME280;13308;50.860;13.664;2024-02-16T10:57:39;96708.88;;;13.92;73.08
25130;BME280;13308;50.860;13.664;2024-02-16T11:00:09;96700.03;;;13.97;74.20
25130;BME280;13308;50.860;13.664;2024-02-16T11:02:54;96701.16;;;14.12;72.46
25130;BME280;13308;50.860;13.664;2024-02-16T11:05:41;96697.47;;;14.03;72.17
25130;BME280;13308;50.860;13.664;2024-02-16T11:08:12;96699.28;;;14.34;70.88
25130;BME280;13308;50.860;13.664;2024-02-16T11:10:38;96695.00;;;14.55;70.98
25130;BME280;13308;50.860;13.664;2024-02-16T11:13:04;96696.28;;;14.41;70.76
25130;BME280;13308;50.860;13.664;2024-02-16T11:15:31;96706.53;;;14.66;70.75
25130;BME280;13308;50.860;13.664;2024-02-16T11:17:57;96718.25;;;15.16;68.29
25130;BME280;13308;50.860;13.664;2024-02-16T11:20:24;96764.34;;;15.82;66.46
25130;BME280;13308;50.860;13.664;2024-02-16T11:22:51;96770.22;;;16.36;63.93
25130;BME280;13308;50.860;13.664;2024-02-16T11:25:17;96766.03;;;17.55;64.94
25130;BME280;13308;50.860;13.664;2024-02-16T11:27:43;96754.41;;;17.39;60.68
25130;BME280;13308;50.860;13.664;2024-02-16T11:30:11;96758.47;;;16.71;61.13
25130;BME280;13308;50.860;13.664;2024-02-16T11:32:36;96763.06;;;16.56;61.34
25130;BME280;13308;50.860;13.664;2024-02-16T11:35:08;96762.69;;;15.84;63.42
25130;BME280;13308;50.860;13.664;2024-02-16T11:37:34;96747.81;;;15.57;64.80
25130;BME280;13308;50.860;13.664;2024-02-16T11:39:59;96749.00;;;15.34;65.54
25130;BME280;13308;50.860;13.664;2024-02-16T11:42:24;96740.50;;;15.16;65.92
25130;BME280;13308;50.860;13.664;2024-02-16T11:44:51;96745.88;;;14.98;66.17
25130;BME280;13308;50.860;13.664;2024-02-16T11:47:24;96740.16;;;14.80;68.04
25130;BME280;13308;50.860;13.664;2024-02-16T11:50:19;96721.25;;;14.41;68.92
25130;BME280;13308;50.860;13.664;2024-02-16T11:52:46;96730.88;;;14.62;68.68
25130;BME280;13308;50.860;13.664;2024-02-16T11:55:12;96731.66;;;14.37;69.97
25130;BME280;13308;50.860;13.664;2024-02-16T11:57:40;96723.19;;;14.03;71.39
25130;BME280;13308;50.860;13.664;2024-02-16T12:00:06;96741.47;;;13.63;73.74
25130;BME280;13308;50.860;13.664;2024-02-16T12:02:40;96723.25;;;13.62;74.00
25130;BME280;13308;50.860;13.664;2024-02-16T12:05:05;96698.78;;;13.32;75.16
25130;BME280;13308;50.860;13.664;2024-02-16T12:07:31;96706.50;;;13.12;77.24
25130;BME280;13308;50.860;13.664;2024-02-16T12:09:59;96688.72;;;13.26;76.79
25130;BME280;13308;50.860;13.664;2024-02-16T12:12:25;96684.44;;;13.09;77.79
25130;BME280;13308;50.860;13.664;2024-02-16T12:14:50;96694.13;;;13.83;76.96
25130;BME280;13308;50.860;13.664;2024-02-16T12:17:17;96714.34;;;14.33;73.11
25130;BME280;13308;50.860;13.664;2024-02-16T12:19:46;96697.94;;;14.85;70.47
25130;BME280;13308;50.860;13.664;2024-02-16T12:22:16;96707.31;;;15.34;68.06
25130;BME280;13308;50.860;13.664;2024-02-16T12:24:42;96717.53;;;15.59;66.93
25130;BME280;13308;50.860;13.664;2024-02-16T12:27:07;96716.56;;;15.74;66.10
25130;BME280;13308;50.860;13.664;2024-02-16T12:29:33;96732.28;;;16.29;64.41
25130;BME280;13308;50.860;13.664;2024-02-16T12:31:58;96726.97;;;16.44;63.49
25130;BME280;13308;50.860;13.664;2024-02-16T12:34:24;96721.94;;;15.99;64.04
25130;BME280;13308;50.860;13.664;2024-02-16T12:36:50;96720.47;;;16.07;64.23
25130;BME280;13308;50.860;13.664;2024-02-16T12:39:16;96718.84;;;16.67;63.00
25130;BME280;13308;50.860;13.664;2024-02-16T12:41:41;96717.03;;;16.91;62.41
25130;BME280;13308;50.860;13.664;2024-02-16T12:44:08;96726.34;;;16.97;62.65
25130;BME280;13308;50.860;13.664;2024-02-16T12:46:33;96730.06;;;17.03;61.87
25130;BME280;13308;50.860;13.664;2024-02-16T12:48:59;96728.50;;;17.02;61.78
25130;BME280;13308;50.860;13.664;2024-02-16T12:51:24;96729.59;;;17.23;62.44
25130;BME280;13308;50.860;13.664;2024-02-16T12:53:49;96733.19;;;17.68;61.04
25130;BME280;13308;50.860;13.664;2024-02-16T12:56:15;96748.41;;;18.18;59.64
25130;BME280;13308;50.860;13.664;2024-02-16T12:58:55;96742.06;;;18.17;58.34
25130;BME280;13308;50.860;13.664;2024-02-16T13:01:31;96755.72;;;18.33;58.40
25130;BME280;13308;50.860;13.664;2024-02-16T13:03:56;96763.63;;;18.26;59.06
25130;BME280;13308;50.860;13.664;2024-02-16T13:06:21;96763.53;;;17.93;59.69
25130;BME280;13308;50.860;13.664;2024-02-16T13:08:47;96767.91;;;17.49;59.28
25130;BME280;13308;50.860;13.664;2024-02-16T13:11:12;96759.25;;;17.38;59.45
25130;BME280;13308;50.860;13.664;2024-02-16T13:13:37;96757.16;;;16.54;61.73
25130;BME280;13308;50.860;13.664;2024-02-16T13:16:03;96743.13;;;15.75;63.72
25130;BME280;13308;50.860;13.664;2024-02-16T13:18:28;96738.25;;;15.36;65.55
25130;BME280;13308;50.860;13.664;2024-02-16T13:20:53;96730.13;;;14.95;67.55
25130;BME280;13308;50.860;13.664;2024-02-16T13:23:20;96729.84;;;14.68;69.04
25130;BME280;13308;50.860;13.664;2024-02-16T13:25:45;96736.09;;;14.60;70.32
25130;BME280;13308;50.860;13.664;2024-02-16T13:28:10;96738.88;;;14.47;70.64
25130;BME280;13308;50.860;13.664;2024-02-16T13:30:36;96734.97;;;14.57;71.07
25130;BME280;13308;50.860;13.664;2024-02-16T13:33:02;96744.34;;;14.26;72.22
25130;BME280;13308;50.860;13.664;2024-02-16T13:35:27;96739.88;;;14.41;73.75
25130;BME280;13308;50.860;13.664;2024-02-16T13:37:54;96737.91;;;14.41;74.12
25130;BME280;13308;50.860;13.664;2024-02-16T13:40:19;96744.00;;;14.36;73.64
25130;BME280;13308;50.860;13.664;2024-02-16T13:42:44;96736.66;;;14.30;74.21
25130;BME280;13308;50.860;13.664;2024-02-16T13:45:10;96731.78;;;14.46;73.83
25130;BME280;13308;50.860;13.664;2024-02-16T13:47:36;96740.53;;;14.32;73.59
25130;BME280;13308;50.860;13.664;2024-02-16T13:50:01;96743.34;;;14.20;74.69
25130;BME280;13308;50.860;13.664;2024-02-16T13:52:27;96737.31;;;14.21;74.74
25130;BME280;13308;50.860;13.664;2024-02-16T13:54:52;96736.78;;;14.26;75.41
25130;BME280;13308;50.860;13.664;2024-02-16T13:57:18;96743.06;;;14.14;75.52
25130;BME280;13308;50.860;13.664;2024-02-16T13:59:45;96734.97;;;14.07;75.87
25130;BME280;13308;50.860;13.664;2024-02-16T14:02:10;96741.28;;;13.95;76.63
25130;BME280;13308;50.860;13.664;2024-02-16T14:04:36;96744.59;;;13.90;76.88
25130;BME280;13308;50.860;13.664;2024-02-16T14:07:02;96732.63;;;13.93;75.94
25130;BME280;13308;50.860;13.664;2024-02-16T14:09:27;96737.94;;;13.75;76.55
25130;BME280;13308;50.860;13.664;2024-02-16T14:11:53;96734.72;;;13.77;77.42
25130;BME280;13308;50.860;13.664;2024-02-16T14:14:26;96736.28;;;13.78;77.81
25130;BME280;13308;50.860;13.664;2024-02-16T14:16:52;96745.25;;;13.69;77.93
25130;BME280;13308;50.860;13.664;2024-02-16T14:19:17;96742.22;;;13.51;78.70
25130;BME280;13308;50.860;13.664;2024-02-16T14:21:43;96734.44;;;13.46;79.75
25130;BME280;13308;50.860;13.664;2024-02-16T14:24:08;96748.03;;;13.41;80.20
25130;BME280;13308;50.860;13.664;2024-02-16T14:26:35;96742.25;;;13.35;81.22
25130;BME280;13308;50.860;13.664;2024-02-16T14:29:01;96744.69;;;13.33;81.70
25130;BME280;13308;50.860;13.664;2024-02-16T14:31:26;96747.31;;;13.24;82.78
25130;BME280;13308;50.860;13.664;2024-02-16T14:33:51;96746.81;;;13.13;83.59
25130;BME280;13308;50.860;13.664;2024-02-16T14:36:17;96765.69;;;13.02;84.52
25130;BME280;13308;50.860;13.664;2024-02-16T14:38:42;96759.72;;;13.04;84.62
25130;BME280;13308;50.860;13.664;2024-02-16T14:41:08;96751.25;;;12.95;85.59
25130;BME280;13308;50.860;13.664;2024-02-16T14:43:33;96752.22;;;12.88;86.97
25130;BME280;13308;50.860;13.664;2024-02-16T14:45:59;96752.91;;;12.60;88.52
25130;BME280;13308;50.860;13.664;2024-02-16T14:48:25;96755.44;;;12.55;90.07
25130;BME280;13308;50.860;13.664;2024-02-16T14:50:51;96754.56;;;12.58;90.97
25130;BME280;13308;50.860;13.664;2024-02-16T14:53:20;96774.72;;;12.58;91.00
25130;BME280;13308;50.860;13.664;2024-02-16T14:55:47;96753.28;;;12.46;91.46
25130;BME280;13308;50.860;13.664;2024-02-16T14:58:12;96750.41;;;12.50;91.68
25130;BME280;13308;50.860;13.664;2024-02-16T15:00:38;96747.72;;;12.30;93.10
25130;BME280;13308;50.860;13.664;2024-02-16T15:03:03;96745.03;;;12.27;93.62
25130;BME280;13308;50.860;13.664;2024-02-16T15:05:29;96757.19;;;12.13;95.88
25130;BME280;13308;50.860;13.664;2024-02-16T15:07:55;96751.53;;;12.20;96.34
25130;BME280;13308;50.860;13.664;2024-02-16T15:10:20;96749.44;;;12.08;96.29
25130;BME280;13308;50.860;13.664;2024-02-16T15:12:45;96748.03;;;12.00;97.29
25130;BME280;13308;50.860;13.664;2024-02-16T15:15:11;96756.31;;;11.84;98.82
25130;BME280;13308;50.860;13.664;2024-02-16T15:17:38;96759.91;;;11.81;99.33
25130;BME280;13308;50.860;13.664;2024-02-16T15:20:05;96761.13;;;11.80;99.85
25130;BME280;13308;50.860;13.664;2024-02-16T15:22:31;96752.97;;;11.73;99.74
25130;BME280;13308;50.860;13.664;2024-02-16T15:24:57;96754.31;;;11.65;100.00
25130;BME280;13308;50.860;13.664;2024-02-16T15:27:22;96743.44;;;11.58;100.00
25130;BME280;13308;50.860;13.664;2024-02-16T15:29:47;96742.72;;;11.54;100.00
25130;BME280;13308;50.860;13.664;2024-02-16T15:32:15;96738.94;;;11.45;100.00
25130;BME280;13308;50.860;13.664;2024-02-16T15:34:40;96747.16;;;11.48;100.00
25130;BME280;13308;50.860;13.664;2024-02-16T15:37:08;96753.19;;;11.43;100.00
25130;BME280;13308;50.860;13.664;2024-02-16T15:39:34;96760.28;;;11.44;100.00
25130;BME280;13308;50.860;13.664;2024-02-16T15:41:59;96747.53;;;11.50;100.00
25130;BME280;13308;50.860;13.664;2024-02-16T15:44:24;96751.91;;;11.48;100.00
25130;BME280;13308;50.860;13.664;2024-02-16T15:46:51;96756.44;;;11.38;100.00
25130;BME280;13308;50.860;13.664;2024-02-16T15:49:16;96746.09;;;11.42;100.00
25130;BME280;13308;50.860;13.664;2024-02-16T15:51:42;96758.22;;;11.29;100.00
25130;BME280;13308;50.860;13.664;2024-02-16T15:54:08;96752.69;;;11.29;100.00
25130;BME280;13308;50.860;13.664;2024-02-16T15:56:33;96745.72;;;11.21;100.00
25130;BME280;13308;50.860;13.664;2024-02-16T15:58:58;96747.81;;;11.17;100.00
25130;BME280;13308;50.860;13.664;2024-02-16T16:01:27;96752.03;;;11.21;100.00
25130;BME280;13308;50.860;13.664;2024-02-16T16:03:53;96750.50;;;11.20;100.00
25130;BME280;13308;50.860;13.664;2024-02-16T16:06:18;96756.00;;;11.20;100.00
25130;BME280;13308;50.860;13.664;2024-02-16T16:08:44;96747.59;;;11.27;100.00
25130;BME280;13308;50.860;13.664;2024-02-16T16:11:10;96748.31;;;11.31;100.00
25130;BME280;13308;50.860;13.664;2024-02-16T16:13:35;96755.88;;;11.27;100.00
25130;BME280;13308;50.860;13.664;2024-02-16T16:16:02;96747.09;;;11.32;100.00
25130;BME280;13308;50.860;13.664;2024-02-16T16:18:28;96758.16;;;11.32;100.00
25130;BME280;13308;50.860;13.664;2024-02-16T16:20:58;96741.72;;;11.25;100.00
25130;BME280;13308;50.860;13.664;2024-02-16T16:23:24;96743.28;;;11.26;100.00
25130;BME280;13308;50.860;13.664;2024-02-16T16:25:50;96751.06;;;11.31;100.00
25130;BME280;13308;50.860;13.664;2024-02-16T16:28:15;96746.38;;;11.28;100.00
25130;BME280;13308;50.860;13.664;2024-02-16T16:30:40;96755.47;;;11.29;100.00
25130;BME280;13308;50.860;13.664;2024-02-16T16:33:06;96753.47;;;11.29;100.00
25130;BME280;13308;50.860;13.664;2024-02-16T16:35:31;96763.28;;;11.30;100.00
25130;BME280;13308;50.860;13.664;2024-02-16T16:37:56;96760.97;;;11.29;100.00
25130;BME280;13308;50.860;13.664;2024-02-16T16:40:22;96758.00;;;11.39;100.00
25130;BME280;13308;50.860;13.664;2024-02-16T16:42:47;96754.03;;;11.40;100.00
25130;BME280;13308;50.860;13.664;2024-02-16T16:45:12;96772.53;;;11.43;100.00
25130;BME280;13308;50.860;13.664;2024-02-16T16:47:38;96771.31;;;11.44;100.00
25130;BME280;13308;50.860;13.664;2024-02-16T16:50:04;96776.03;;;11.44;99.97
25130;BME280;13308;50.860;13.664;2024-02-16T16:52:29;96779.09;;;11.49;99.48
25130;BME280;13308;50.860;13.664;2024-02-16T16:54:54;96777.53;;;11.48;99.74
25130;BME280;13308;50.860;13.664;2024-02-16T16:57:20;96775.47;;;11.52;98.81
25130;BME280;13308;50.860;13.664;2024-02-16T16:59:46;96777.91;;;11.50;99.17
25130;BME280;13308;50.860;13.664;2024-02-16T17:02:11;96790.00;;;11.56;98.61
25130;BME280;13308;50.860;13.664;2024-02-16T17:04:36;96790.75;;;11.60;98.59
25130;BME280;13308;50.860;13.664;2024-02-16T17:07:02;96799.59;;;11.71;97.79
25130;BME280;13308;50.860;13.664;2024-02-16T17:09:28;96801.22;;;11.69;97.26
25130;BME280;13308;50.860;13.664;2024-02-16T17:11:53;96807.34;;;11.60;98.62
25130;BME280;13308;50.860;13.664;2024-02-16T17:14:21;96800.09;;;11.66;97.93
25130;BME280;13308;50.860;13.664;2024-02-16T17:16:49;96814.34;;;11.65;97.68
25130;BME280;13308;50.860;13.664;2024-02-16T17:19:14;96805.69;;;11.63;98.54
25130;BME280;13308;50.860;13.664;2024-02-16T17:21:39;96813.53;;;11.64;97.58
25130;BME280;13308;50.860;13.664;2024-02-16T17:24:05;96815.81;;;11.69;97.08
25130;BME280;13308;50.860;13.664;2024-02-16T17:26:30;96820.50;;;11.72;96.77
25130;BME280;13308;50.860;13.664;2024-02-16T17:28:55;96816.16;;;11.71;97.09
25130;BME280;13308;50.860;13.664;2024-02-16T17:31:22;96822.97;;;11.67;97.58
25130;BME280;13308;50.860;13.664;2024-02-16T17:33:47;96823.75;;;11.67;97.93
25130;BME280;13308;50.860;13.664;2024-02-16T17:36:12;96833.31;;;11.63;98.38
25130;BME280;13308;50.860;13.664;2024-02-16T17:38:38;96834.09;;;11.63;98.41
25130;BME280;13308;50.860;13.664;2024-02-16T17:41:03;96841.03;;;11.71;97.99
25130;BME280;13308;50.860;13.664;2024-02-16T17:43:29;96839.41;;;11.74;97.70
25130;BME280;13308;50.860;13.664;2024-02-16T17:45:54;96849.53;;;11.80;97.08
25130;BME280;13308;50.860;13.664;2024-02-16T17:48:20;96849.75;;;11.89;95.99
25130;BME280;13308;50.860;13.664;2024-02-16T17:50:46;96848.69;;;11.83;96.39
25130;BME280;13308;50.860;13.664;2024-02-16T17:53:11;96851.50;;;11.80;96.83
25130;BME280;13308;50.860;13.664;2024-02-16T17:55:36;96857.34;;;11.85;96.75
25130;BME280;13308;50.860;13.664;2024-02-16T17:58:03;96847.69;;;11.93;96.18
25130;BME280;13308;50.860;13.664;2024-02-16T18:00:28;96851.66;;;11.92;95.50
25130;BME280;13308;50.860;13.664;2024-02-16T18:02:54;96851.66;;;11.92;96.53
25130;BME280;13308;50.860;13.664;2024-02-16T18:05:19;96853.03;;;11.84;96.48
25130;BME280;13308;50.860;13.664;2024-02-16T18:07:45;96853.03;;;11.84;96.96
25130;BME280;13308;50.860;13.664;2024-02-16T18:10:10;96852.31;;;11.80;97.72
25130;BME280;13308;50.860;13.664;2024-02-16T18:12:36;96863.13;;;11.71;98.33
25130;BME280;13308;50.860;13.664;2024-02-16T18:15:02;96857.50;;;11.78;97.53
25130;BME280;13308;50.860;13.664;2024-02-16T18:17:28;96860.25;;;11.78;97.86
25130;BME280;13308;50.860;13.664;2024-02-16T18:19:54;96854.00;;;11.74;98.34
25130;BME280;13308;50.860;13.664;2024-02-16T18:22:19;96852.94;;;11.68;99.54
25130;BME280;13308;50.860;13.664;2024-02-16T18:24:45;96853.00;;;11.65;99.59
25130;BME280;13308;50.860;13.664;2024-02-16T18:27:10;96856.84;;;11.71;99.17
25130;BME280;13308;50.860;13.664;2024-02-16T18:29:37;96856.63;;;11.81;97.98
25130;BME280;13308;50.860;13.664;2024-02-16T18:32:02;96850.25;;;11.84;97.52
25130;BME280;13308;50.860;13.664;2024-02-16T18:34:27;96859.09;;;11.95;96.94
25130;BME280;13308;50.860;13.664;2024-02-16T18:36:53;96861.84;;;11.95;96.42
25130;BME280;13308;50.860;13.664;2024-02-16T18:39:22;96853.22;;;11.93;96.74
25130;BME280;13308;50.860;13.664;2024-02-16T18:41:49;96860.94;;;11.82;98.02
25130;BME280;13308;50.860;13.664;2024-02-16T18:44:15;96858.19;;;11.82;97.75
25130;BME280;13308;50.860;13.664;2024-02-16T18:46:40;96859.81;;;11.80;98.55
25130;BME280;13308;50.860;13.664;2024-02-16T18:49:08;96868.59;;;11.75;99.17
25130;BME280;13308;50.860;13.664;2024-02-16T18:51:33;96862.72;;;11.73;99.75
25130;BME280;13308;50.860;13.664;2024-02-16T18:53:59;96873.03;;;11.69;100.00
25130;BME280;13308;50.860;13.664;2024-02-16T18:56:25;96878.94;;;11.71;100.00
25130;BME280;13308;50.860;13.664;2024-02-16T18:58:50;96882.47;;;11.71;100.00
25130;BME280;13308;50.860;13.664;2024-02-16T19:01:16;96879.94;;;11.80;100.00
25130;BME280;13308;50.860;13.664;2024-02-16T19:03:41;96881.84;;;11.83;99.81
25130;BME280;13308;50.860;13.664;2024-02-16T19:06:06;96891.47;;;11.75;100.00
25130;BME280;13308;50.860;13.664;2024-02-16T19:08:35;96882.06;;;11.73;100.00
25130;BME280;13308;50.860;13.664;2024-02-16T19:11:01;96885.97;;;11.75;100.00
25130;BME280;13308;50.860;13.664;2024-02-16T19:13:28;96888.13;;;11.64;100.00
